createdAt,value
2019-03-30T00:02:10.045Z,6.90
2019-03-30T00:04:40.611Z,6.80
2019-03-30T00:07:11.056Z,6.80
2019-03-30T00:09:41.448Z,6.80
2019-03-30T00:12:12.026Z,6.70
2019-03-30T00:14:42.696Z,6.70
2019-03-30T00:17:13.114Z,6.70
2019-03-30T00:19:43.490Z,6.70
2019-03-30T00:22:13.971Z,6.60
2019-03-30T00:24:44.452Z,6.60
2019-03-30T00:30:59.785Z,6.50
2019-03-30T00:33:30.298Z,6.50
2019-03-30T00:36:00.786Z,6.40
2019-03-30T00:38:31.458Z,6.40
2019-03-30T00:41:02.358Z,6.40
2019-03-30T00:43:32.785Z,6.40
2019-03-30T00:46:03.165Z,6.30
2019-03-30T00:48:33.589Z,6.30
2019-03-30T00:51:04.029Z,6.20
2019-03-30T00:53:34.529Z,6.30
2019-03-30T00:56:04.856Z,6.20
2019-03-30T01:02:07.941Z,6.10
2019-03-30T01:04:38.457Z,6.10
2019-03-30T01:07:08.911Z,6.00
2019-03-30T01:09:39.396Z,5.90
2019-03-30T01:12:10.779Z,5.90
2019-03-30T01:14:41.191Z,5.90
2019-03-30T01:17:11.621Z,5.90
2019-03-30T01:19:41.909Z,5.90
2019-03-30T01:22:12.469Z,5.80
2019-03-30T01:24:43.096Z,5.80
2019-03-30T01:34:30.558Z,5.70
2019-03-30T01:37:01.047Z,5.70
2019-03-30T01:39:31.406Z,5.60
2019-03-30T01:42:01.699Z,5.60
2019-03-30T01:44:32.050Z,5.60
2019-03-30T01:47:02.387Z,5.50
2019-03-30T01:49:32.819Z,5.50
2019-03-30T01:52:03.254Z,5.40
2019-03-30T01:54:33.794Z,5.40
2019-03-30T01:57:04.419Z,5.30
2019-03-30T01:59:34.987Z,5.30
2019-03-30T02:02:05.620Z,5.30
2019-03-30T02:04:36.146Z,5.40
2019-03-30T02:07:06.587Z,5.30
2019-03-30T02:09:37.081Z,5.30
2019-03-30T02:12:07.621Z,5.30
2019-03-30T02:14:38.173Z,5.20
2019-03-30T02:17:08.669Z,5.20
2019-03-30T02:19:39.175Z,5.20
2019-03-30T02:22:09.685Z,5.20
2019-03-30T02:24:40.243Z,5.20
2019-03-30T02:27:10.784Z,5.20
2019-03-30T02:29:41.187Z,5.10
2019-03-30T02:32:11.637Z,5.10
2019-03-30T02:34:42.170Z,5.10
2019-03-30T02:37:12.714Z,5.10
2019-03-30T02:39:43.263Z,5.00
2019-03-30T02:42:13.778Z,5.00
2019-03-30T02:44:44.182Z,4.90
2019-03-30T02:47:14.644Z,4.90
2019-03-30T02:49:44.910Z,4.90
2019-03-30T02:52:15.392Z,4.90
2019-03-30T02:54:45.958Z,4.90
2019-03-30T02:57:18.457Z,4.80
2019-03-30T02:59:48.808Z,4.80
2019-03-30T03:02:19.208Z,4.80
2019-03-30T03:04:49.558Z,4.70
2019-03-30T03:07:20.004Z,4.80
2019-03-30T03:09:50.433Z,4.80
2019-03-30T03:12:21.102Z,4.70
2019-03-30T03:14:51.579Z,4.70
2019-03-30T03:17:21.976Z,4.60
2019-03-30T03:19:52.443Z,4.60
2019-03-30T03:22:23.039Z,4.60
2019-03-30T03:24:53.606Z,4.60
2019-03-30T03:27:24.164Z,4.50
2019-03-30T03:29:54.611Z,4.50
2019-03-30T03:32:25.175Z,4.50
2019-03-30T03:34:56.026Z,4.40
2019-03-30T03:37:43.285Z,4.40
2019-03-30T03:39:58.549Z,4.40
2019-03-30T03:42:29.169Z,4.40
2019-03-30T03:45:01.504Z,4.40
2019-03-30T03:47:31.972Z,4.40
2019-03-30T03:50:02.301Z,4.30
2019-03-30T03:52:32.743Z,4.30
2019-03-30T03:55:04.291Z,4.30
2019-03-30T03:57:39.060Z,4.30
2019-03-30T04:00:11.569Z,4.30
2019-03-30T04:02:45.201Z,4.20
2019-03-30T04:05:15.609Z,4.20
2019-03-30T04:07:47.754Z,4.10
2019-03-30T04:10:18.854Z,4.10
2019-03-30T04:12:50.872Z,4.10
2019-03-30T04:15:27.530Z,4.10
2019-03-30T04:17:57.882Z,4.10
2019-03-30T04:20:28.401Z,4.10
2019-03-30T04:22:59.328Z,4.10
2019-03-30T04:25:29.709Z,4.00
2019-03-30T04:28:00.038Z,3.90
2019-03-30T04:30:30.570Z,3.90
2019-03-30T04:33:01.014Z,3.90
2019-03-30T04:35:31.495Z,3.90
2019-03-30T04:38:02.035Z,3.90
2019-03-30T04:40:32.390Z,3.90
2019-03-30T04:43:02.862Z,3.90
2019-03-30T04:45:33.257Z,3.80
2019-03-30T04:48:03.601Z,3.80
2019-03-30T04:50:34.135Z,3.80
2019-03-30T04:53:04.580Z,3.80
2019-03-30T04:55:35.045Z,3.70
2019-03-30T04:58:08.907Z,3.80
2019-03-30T05:00:37.584Z,3.70
2019-03-30T05:03:08.114Z,3.80
2019-03-30T05:05:38.570Z,3.70
2019-03-30T05:08:08.997Z,3.70
2019-03-30T05:10:39.391Z,3.70
2019-03-30T05:13:09.855Z,3.70
2019-03-30T05:15:40.473Z,3.70
2019-03-30T05:18:10.967Z,3.60
2019-03-30T05:20:41.280Z,3.60
2019-03-30T05:23:11.603Z,3.60
2019-03-30T05:25:42.003Z,3.70
2019-03-30T05:28:12.400Z,3.60
2019-03-30T05:30:42.807Z,3.60
2019-03-30T05:33:14.501Z,3.70
2019-03-30T05:35:48.689Z,3.70
2019-03-30T05:38:19.215Z,3.70
2019-03-30T05:40:50.331Z,3.70
2019-03-30T05:43:20.878Z,3.70
2019-03-30T05:45:51.328Z,3.70
2019-03-30T05:48:21.655Z,3.70
2019-03-30T05:50:52.160Z,3.70
2019-03-30T05:53:22.499Z,3.80
2019-03-30T05:55:52.843Z,3.80
2019-03-30T05:58:32.234Z,3.80
2019-03-30T06:01:02.707Z,3.90
2019-03-30T06:03:33.245Z,3.90
2019-03-30T06:06:03.754Z,4.00
2019-03-30T06:08:34.282Z,4.00
2019-03-30T06:11:04.864Z,4.10
2019-03-30T06:13:35.265Z,4.10
2019-03-30T06:16:05.798Z,4.20
2019-03-30T06:18:36.419Z,4.30
2019-03-30T06:21:06.949Z,4.30
2019-03-30T06:23:37.478Z,4.40
2019-03-30T06:26:08.201Z,4.50
2019-03-30T06:28:38.709Z,4.60
2019-03-30T06:31:09.243Z,4.60
2019-03-30T06:33:39.828Z,4.80
2019-03-30T06:36:10.244Z,4.80
2019-03-30T06:38:40.807Z,4.90
2019-03-30T06:41:11.211Z,5.00
2019-03-30T06:43:41.495Z,5.10
2019-03-30T06:46:18.131Z,5.20
2019-03-30T06:48:53.070Z,5.20
2019-03-30T06:51:23.689Z,5.30
2019-03-30T06:53:54.201Z,5.50
2019-03-30T06:56:24.739Z,5.60
2019-03-30T07:02:03.630Z,6.00
2019-03-30T07:04:34.005Z,6.20
2019-03-30T07:07:04.884Z,6.40
2019-03-30T07:09:37.953Z,6.60
2019-03-30T07:12:09.205Z,6.80
2019-03-30T07:18:13.446Z,7.10
2019-03-30T07:20:44.938Z,7.20
2019-03-30T07:23:21.283Z,7.30
2019-03-30T07:25:56.057Z,7.40
2019-03-30T07:28:27.434Z,7.50
2019-03-30T07:30:59.370Z,7.60
2019-03-30T07:33:30.746Z,7.80
2019-03-30T07:36:02.195Z,8.00
2019-03-30T07:38:51.987Z,8.20
2019-03-30T07:41:22.913Z,8.40
2019-03-30T07:43:53.430Z,8.50
2019-03-30T07:46:23.884Z,8.70
2019-03-30T07:48:54.288Z,8.70
2019-03-30T07:51:24.698Z,8.80
2019-03-30T07:53:55.130Z,8.90
2019-03-30T07:56:25.558Z,9.10
2019-03-30T07:58:56.166Z,9.20
2019-03-30T08:01:26.682Z,9.40
2019-03-30T08:03:57.162Z,9.60
2019-03-30T08:06:27.666Z,9.70
2019-03-30T08:08:58.316Z,9.80
2019-03-30T08:11:28.704Z,9.90
2019-03-30T08:13:59.232Z,10.10
2019-03-30T08:16:29.964Z,10.20
2019-03-30T08:19:00.581Z,10.40
2019-03-30T08:21:31.166Z,10.50
2019-03-30T08:24:02.127Z,10.70
2019-03-30T08:26:35.517Z,10.80
2019-03-30T08:29:04.742Z,10.90
2019-03-30T08:31:35.112Z,11.00
2019-03-30T08:34:05.932Z,11.00
2019-03-30T08:36:36.458Z,11.20
2019-03-30T08:39:08.121Z,11.30
2019-03-30T08:41:38.697Z,11.60
2019-03-30T08:44:09.125Z,11.80
2019-03-30T08:46:39.660Z,12.00
2019-03-30T08:49:10.082Z,12.20
2019-03-30T08:51:41.847Z,12.50
2019-03-30T08:54:12.336Z,12.70
2019-03-30T08:56:42.779Z,12.80
2019-03-30T08:59:13.454Z,12.90
2019-03-30T09:01:43.876Z,12.80
2019-03-30T09:04:14.398Z,12.90
2019-03-30T09:06:44.814Z,13.10
2019-03-30T09:09:15.329Z,13.30
2019-03-30T09:11:45.775Z,13.40
2019-03-30T09:17:48.624Z,13.60
2019-03-30T09:20:19.133Z,13.70
2019-03-30T09:22:49.596Z,13.70
2019-03-30T09:25:19.962Z,13.90
2019-03-30T09:27:50.336Z,14.10
2019-03-30T09:30:20.790Z,14.30
2019-03-30T09:32:51.286Z,14.40
2019-03-30T09:35:21.624Z,14.50
2019-03-30T09:37:52.277Z,14.50
2019-03-30T09:40:22.833Z,14.60
2019-03-30T09:42:53.395Z,14.40
2019-03-30T09:45:23.973Z,14.40
2019-03-30T09:47:55.867Z,14.30
2019-03-30T09:50:26.393Z,14.40
2019-03-30T09:52:57.715Z,14.60
2019-03-30T09:55:28.337Z,14.90
2019-03-30T09:57:58.962Z,14.90
2019-03-30T10:00:29.565Z,15.00
2019-03-30T10:02:59.892Z,14.90
2019-03-30T10:05:30.326Z,15.10
2019-03-30T10:08:00.768Z,15.20
2019-03-30T10:10:34.067Z,15.50
2019-03-30T10:17:26.984Z,15.70
2019-03-30T10:20:04.303Z,15.90
2019-03-30T10:22:29.646Z,16.00
2019-03-30T10:25:00.285Z,16.10
2019-03-30T10:27:30.755Z,16.20
2019-03-30T10:37:06.216Z,16.90
2019-03-30T10:39:36.751Z,17.10
2019-03-30T10:42:07.059Z,17.20
2019-03-30T10:44:37.593Z,17.40
2019-03-30T10:47:08.070Z,17.60
2019-03-30T10:49:38.537Z,17.80
2019-03-30T10:52:08.945Z,17.90
2019-03-30T10:54:52.093Z,18.30
2019-03-30T10:57:11.610Z,18.30
2019-03-30T10:59:42.145Z,18.40
2019-03-30T11:02:13.199Z,18.60
2019-03-30T11:04:43.721Z,18.70
2019-03-30T11:07:14.175Z,18.80
2019-03-30T11:09:44.613Z,18.80
2019-03-30T11:12:15.071Z,18.70
2019-03-30T11:14:45.467Z,18.70
2019-03-30T11:17:19.240Z,18.70
2019-03-30T11:19:48.077Z,19.00
2019-03-30T11:22:18.632Z,19.30
2019-03-30T11:24:49.014Z,19.60
2019-03-30T11:27:19.377Z,19.90
2019-03-30T11:29:49.926Z,19.80
2019-03-30T11:32:20.450Z,19.80
2019-03-30T11:34:50.860Z,19.80
2019-03-30T11:37:21.289Z,19.80
2019-03-30T11:39:51.658Z,19.70
2019-03-30T11:42:22.041Z,19.90
2019-03-30T11:44:52.510Z,20.10
2019-03-30T11:47:24.219Z,20.50
2019-03-30T11:49:54.677Z,20.50
2019-03-30T11:52:25.248Z,20.20
2019-03-30T11:54:55.780Z,20.30
2019-03-30T11:57:26.234Z,20.50
2019-03-30T11:59:56.709Z,20.60
2019-03-30T12:02:28.357Z,20.50
2019-03-30T12:04:59.206Z,20.60
2019-03-30T12:07:29.747Z,20.50
2019-03-30T12:10:00.725Z,20.60
2019-03-30T12:12:31.080Z,21.00
2019-03-30T12:15:01.507Z,21.30
2019-03-30T12:17:32.057Z,21.50
2019-03-30T12:20:02.628Z,21.80
2019-03-30T12:22:33.126Z,21.90
2019-03-30T12:25:03.677Z,22.00
2019-03-30T12:27:34.120Z,21.80
2019-03-30T12:30:04.824Z,22.00
2019-03-30T12:32:35.106Z,22.40
2019-03-30T12:35:05.930Z,22.40
2019-03-30T12:37:36.451Z,22.20
2019-03-30T12:40:07.076Z,22.40
2019-03-30T12:42:37.610Z,22.80
2019-03-30T12:45:08.860Z,22.60
2019-03-30T12:47:39.281Z,22.00
2019-03-30T12:50:09.780Z,22.00
2019-03-30T12:52:40.261Z,22.00
2019-03-30T12:55:10.667Z,22.30
2019-03-30T12:57:41.155Z,22.00
2019-03-30T13:00:11.787Z,21.30
2019-03-30T13:02:42.268Z,20.90
2019-03-30T13:05:12.777Z,20.60
2019-03-30T13:07:43.533Z,20.60
2019-03-30T13:10:14.108Z,20.90
2019-03-30T13:12:44.559Z,21.50
2019-03-30T13:15:15.042Z,21.70
2019-03-30T13:17:45.360Z,21.60
2019-03-30T13:20:15.645Z,21.20
2019-03-30T13:22:46.204Z,21.10
2019-03-30T13:25:16.714Z,21.20
2019-03-30T13:27:47.138Z,21.30
2019-03-30T13:30:17.818Z,21.20
2019-03-30T13:32:48.236Z,21.10
2019-03-30T13:35:18.661Z,21.20
2019-03-30T13:37:49.140Z,21.20
2019-03-30T13:40:19.958Z,21.20
2019-03-30T13:42:50.373Z,21.00
2019-03-30T13:45:20.750Z,21.00
2019-03-30T13:47:51.320Z,20.80
2019-03-30T13:50:21.884Z,20.30
2019-03-30T13:52:52.250Z,20.10
2019-03-30T13:55:22.852Z,20.10
2019-03-30T13:57:53.318Z,19.80
2019-03-30T14:00:23.869Z,19.50
2019-03-30T14:02:54.334Z,19.50
2019-03-30T14:05:24.850Z,19.30
2019-03-30T14:07:55.398Z,19.20
2019-03-30T14:10:25.766Z,19.20
2019-03-30T14:12:56.318Z,19.10
2019-03-30T14:15:26.768Z,18.90
2019-03-30T14:17:57.371Z,18.70
2019-03-30T14:20:27.999Z,18.60
2019-03-30T14:22:58.374Z,18.60
2019-03-30T14:25:30.439Z,18.60
2019-03-30T14:28:03.022Z,18.60
2019-03-30T14:30:33.490Z,18.40
2019-03-30T14:33:03.869Z,18.40
2019-03-30T14:35:34.417Z,18.30
2019-03-30T14:38:04.976Z,18.40
2019-03-30T14:40:35.461Z,18.20
2019-03-30T14:43:06.017Z,18.20
2019-03-30T14:49:08.828Z,18.20
2019-03-30T14:51:39.271Z,18.30
2019-03-30T14:54:09.559Z,18.30
2019-03-30T14:56:45.712Z,18.30
2019-03-30T14:59:14.432Z,18.30
2019-03-30T15:01:44.467Z,18.30
2019-03-30T15:04:15.017Z,18.30
2019-03-30T15:06:45.450Z,18.40
2019-03-30T15:09:15.825Z,18.40
2019-03-30T15:11:46.285Z,18.50
2019-03-30T15:14:16.750Z,18.60
2019-03-30T15:16:47.214Z,18.80
2019-03-30T15:19:17.654Z,18.90
2019-03-30T15:21:48.172Z,19.20
2019-03-30T15:24:18.683Z,19.60
2019-03-30T15:26:59.768Z,19.60
2019-03-30T15:29:21.192Z,19.30
2019-03-30T15:31:51.713Z,19.10
2019-03-30T15:34:22.174Z,18.90
2019-03-30T15:36:52.707Z,18.70
2019-03-30T15:39:23.181Z,18.50
2019-03-30T15:41:53.496Z,18.30
2019-03-30T15:44:23.923Z,18.10
2019-03-30T15:46:54.561Z,17.90
2019-03-30T15:49:25.165Z,17.70
2019-03-30T15:51:55.698Z,17.70
2019-03-30T15:54:26.220Z,17.50
2019-03-30T15:56:56.654Z,17.40
2019-03-30T15:59:27.386Z,17.50
2019-03-30T16:01:57.924Z,17.40
2019-03-30T16:04:28.346Z,17.30
2019-03-30T16:06:58.698Z,17.40
2019-03-30T16:09:29.069Z,17.40
2019-03-30T16:11:59.454Z,17.40
2019-03-30T16:18:05.426Z,17.40
2019-03-30T16:20:35.722Z,17.50
2019-03-30T16:23:06.369Z,17.50
2019-03-30T16:25:36.756Z,17.50
2019-03-30T16:28:07.147Z,17.50
2019-03-30T16:30:37.540Z,17.40
2019-03-30T16:33:07.937Z,17.30
2019-03-30T16:35:38.370Z,17.10
2019-03-30T16:38:08.670Z,17.00
2019-03-30T16:40:38.926Z,16.90
2019-03-30T16:43:09.235Z,16.80
2019-03-30T16:45:39.484Z,16.80
2019-03-30T16:48:09.712Z,16.70
2019-03-30T16:50:40.023Z,16.60
2019-03-30T16:53:10.435Z,16.60
2019-03-30T16:55:41.391Z,16.50
2019-03-30T16:58:11.858Z,16.50
2019-03-30T17:04:23.625Z,16.40
2019-03-30T17:06:54.045Z,16.40
2019-03-30T17:09:24.536Z,16.40
2019-03-30T17:11:55.129Z,16.30
2019-03-30T17:18:12.862Z,16.10
2019-03-30T17:20:43.202Z,15.90
2019-03-30T17:23:13.831Z,15.90
2019-03-30T17:25:44.297Z,15.80
2019-03-30T17:28:14.767Z,15.70
2019-03-30T17:30:45.347Z,15.60
2019-03-30T17:33:15.881Z,15.60
2019-03-30T17:35:46.631Z,15.60
2019-03-30T17:38:17.179Z,15.50
2019-03-30T17:40:47.871Z,15.40
2019-03-30T17:43:21.166Z,15.40
2019-03-30T17:45:51.787Z,15.40
2019-03-30T17:48:22.483Z,15.30
2019-03-30T17:50:52.950Z,15.30
2019-03-30T17:53:26.548Z,15.30
2019-03-30T17:55:56.960Z,15.20
2019-03-30T17:58:27.409Z,15.10
2019-03-30T18:00:58.032Z,15.10
2019-03-30T18:03:28.428Z,15.10
2019-03-30T18:05:58.967Z,15.00
2019-03-30T18:08:29.682Z,15.00
2019-03-30T18:11:03.892Z,14.90
2019-03-30T18:14:11.856Z,14.80
2019-03-30T18:16:44.787Z,14.70
2019-03-30T18:19:15.307Z,14.50
2019-03-30T18:22:02.230Z,14.30
2019-03-30T18:24:24.679Z,14.20
2019-03-30T18:26:57.435Z,14.00
2019-03-30T18:29:27.816Z,13.90
2019-03-30T18:31:58.916Z,13.80
2019-03-30T18:34:29.732Z,13.70
2019-03-30T18:37:00.333Z,13.60
2019-03-30T18:39:31.818Z,13.50
2019-03-30T18:42:02.322Z,13.40
2019-03-30T18:44:32.789Z,13.40
2019-03-30T18:47:04.270Z,13.30
2019-03-30T18:49:34.809Z,13.10
2019-03-30T18:52:05.342Z,13.00
2019-03-30T18:54:36.443Z,13.00
2019-03-30T18:57:06.934Z,12.90
2019-03-30T18:59:37.390Z,12.80
2019-03-30T19:02:07.840Z,12.80
2019-03-30T19:04:38.164Z,12.80
2019-03-30T19:07:08.770Z,12.80
2019-03-30T19:09:39.254Z,12.70
2019-03-30T19:12:09.722Z,12.70
2019-03-30T19:14:40.201Z,12.70
2019-03-30T19:17:10.721Z,12.60
2019-03-30T19:19:41.172Z,12.50
2019-03-30T19:22:11.736Z,12.40
2019-03-30T19:24:42.209Z,12.40
2019-03-30T19:27:12.635Z,12.30
2019-03-30T19:29:43.156Z,12.30
2019-03-30T19:32:13.482Z,12.20
2019-03-30T19:34:43.903Z,12.20
2019-03-30T19:37:14.497Z,12.10
2019-03-30T19:39:44.899Z,12.00
2019-03-30T19:42:15.930Z,11.90
2019-03-30T19:44:47.167Z,11.70
2019-03-30T19:47:17.727Z,11.70
2019-03-30T19:49:48.579Z,11.60
2019-03-30T19:52:19.137Z,11.50
2019-03-30T19:54:49.553Z,11.40
2019-03-30T19:57:19.890Z,11.40
2019-03-30T19:59:50.376Z,11.40
2019-03-30T20:02:21.024Z,11.40
2019-03-30T20:04:51.383Z,11.40
2019-03-30T20:07:21.977Z,11.40
2019-03-30T20:09:52.559Z,11.30
2019-03-30T20:12:23.127Z,11.20
2019-03-30T20:14:53.850Z,11.20
2019-03-30T20:17:24.298Z,11.10
2019-03-30T20:19:54.658Z,11.00
2019-03-30T20:22:25.039Z,10.90
2019-03-30T20:24:55.559Z,10.80
2019-03-30T20:27:26.164Z,10.80
2019-03-30T20:29:56.633Z,10.80
2019-03-30T20:32:27.100Z,10.70
2019-03-30T20:34:57.760Z,10.70
2019-03-30T20:37:28.358Z,10.60
2019-03-30T20:39:59.949Z,10.50
2019-03-30T20:42:30.510Z,10.40
2019-03-30T20:45:00.976Z,10.30
2019-03-30T20:47:31.252Z,10.20
2019-03-30T20:50:01.746Z,10.10
2019-03-30T20:52:32.776Z,10.00
2019-03-30T20:55:03.682Z,10.00
2019-03-30T20:57:34.184Z,10.00
2019-03-30T21:00:05.903Z,9.90
2019-03-30T21:02:36.226Z,9.90
2019-03-30T21:05:08.376Z,9.90
2019-03-30T21:07:41.764Z,9.80
2019-03-30T21:10:14.396Z,9.80
2019-03-30T21:12:44.122Z,9.70
2019-03-30T21:15:14.723Z,9.60
2019-03-30T21:17:45.147Z,9.60
2019-03-30T21:20:17.426Z,9.60
2019-03-30T21:22:47.972Z,9.50
2019-03-30T21:25:18.395Z,9.50
2019-03-30T21:27:48.923Z,9.50
2019-03-30T21:30:19.562Z,9.50
2019-03-30T21:32:50.044Z,9.40
2019-03-30T21:35:29.380Z,9.40
2019-03-30T21:37:59.862Z,9.30
2019-03-30T21:40:39.467Z,9.30
2019-03-30T21:43:09.963Z,9.20
2019-03-30T21:45:40.250Z,9.10
2019-03-30T21:48:10.679Z,9.10
2019-03-30T21:50:41.321Z,9.00
2019-03-30T21:53:11.921Z,9.00
2019-03-30T21:55:42.445Z,8.90
2019-03-30T21:58:13.335Z,8.80
2019-03-30T22:00:43.787Z,8.70
2019-03-30T22:03:14.353Z,8.70
2019-03-30T22:05:44.784Z,8.60
2019-03-30T22:08:17.188Z,8.50
2019-03-30T22:10:47.390Z,8.40
2019-03-30T22:13:21.261Z,8.40
2019-03-30T22:19:22.425Z,8.30
2019-03-30T22:21:52.946Z,8.20
2019-03-30T22:24:23.521Z,8.20
2019-03-30T22:26:54.103Z,8.20
2019-03-30T22:29:24.659Z,8.20
2019-03-30T22:31:55.028Z,8.20
2019-03-30T22:34:25.671Z,8.20
2019-03-30T22:36:56.194Z,8.20
2019-03-30T22:39:26.764Z,8.10
2019-03-30T22:41:57.298Z,8.10
2019-03-30T22:44:27.816Z,8.00
2019-03-30T22:46:58.314Z,7.90
2019-03-30T22:49:28.845Z,7.90
2019-03-30T22:52:00.263Z,7.80
2019-03-30T22:54:30.683Z,7.80
2019-03-30T22:57:01.511Z,7.90
2019-03-30T22:59:32.043Z,7.90
2019-03-30T23:02:02.594Z,7.90
2019-03-30T23:04:33.045Z,8.00
2019-03-30T23:07:03.595Z,8.20
2019-03-30T23:09:34.119Z,8.30
2019-03-30T23:12:04.585Z,8.50
2019-03-30T23:14:35.095Z,8.60
2019-03-30T23:17:06.143Z,8.70
2019-03-30T23:19:36.637Z,8.70
2019-03-30T23:22:07.252Z,8.70
2019-03-30T23:24:37.806Z,8.70
2019-03-30T23:27:08.297Z,8.80
2019-03-30T23:29:38.864Z,8.80
2019-03-30T23:32:09.359Z,8.90
2019-03-30T23:34:40.505Z,8.80
2019-03-30T23:37:11.046Z,8.90
2019-03-30T23:39:41.503Z,8.80
2019-03-30T23:42:11.848Z,8.80
2019-03-30T23:44:42.239Z,8.80
2019-03-30T23:47:12.781Z,8.80
2019-03-30T23:49:43.208Z,8.80
2019-03-30T23:52:13.785Z,8.70
2019-03-30T23:54:44.293Z,8.70
2019-03-30T23:57:14.837Z,8.70
2019-03-30T23:59:47.054Z,8.70
